Avon Lake, Ohio
Current Conditions -  °F | °C
As of 5:51 PM on Wednesday 26 Nov 2014 (Local Time) from KCLE Reporting Station
Broken Clouds Broken Clouds  
Wind Chill: 28°   Ceiling: 4100
Heat Index: 34°   Visibility: 10mi
Dew Point: 26°   Wind: 7mph
Humidity: 73%   Direction: 310°NW
Pressure: 30.07"   Gusts: NA
Location:  41.51°N, 82.02°W
Report Text: KCLE 262251Z 31006KT 10SM FEW033 BKN041 01/M03 A3007 RMK AO2 SLP190 T00111033
Loading
Personal Weather Stations






























Interactive Weather Map New forecast layout! Learn more

10-Day Weather Forecast

Advertisements
Track Severe Weather on mobile